Time;durP1;ratioP1;P1;durP2;ratioP2;P2;SDS_P1;SDS_P2;PMS_P1;PMS_P2;Temp;Humidity;BMP_temperature;BMP_pressure;BME280_temperature;BME280_humidity;BME280_pressure;Samples;Min_cycle;Max_cycle;Signal;HPM_P1;HPM_P2
2022/06/05 00:02:02;;;;;;;13.75;6.60;;;;;;;24.16;55.19;95435.13;4922492;29;20043;-84
2022/06/05 00:04:36;;;;;;;20.83;7.05;;;;;;;24.05;55.60;95431.38;4922643;29;20044;-84
2022/06/05 00:07:35;;;;;;;17.45;7.78;;;;;;;24.03;55.88;95431.72;4922489;29;20417;-83
2022/06/05 00:10:27;;;;;;;16.35;7.00;;;;;;;23.92;56.16;95419.88;4904512;29;20066;-83
2022/06/05 00:12:55;;;;;;;16.70;6.55;;;;;;;23.97;55.67;95418.81;4922996;29;20040;-84
2022/06/05 00:15:21;;;;;;;14.80;7.22;;;;;;;23.37;56.43;95345.06;4904961;29;20049;-83
2022/06/05 00:17:46;;;;;;;14.32;6.10;;;;;;;23.85;55.69;95390.72;4922680;29;20047;-84
2022/06/05 00:20:12;;;;;;;18.58;6.88;;;;;;;22.92;56.08;95291.41;4922854;29;20043;-83
2022/06/05 00:22:39;;;;;;;15.43;6.53;;;;;;;23.50;55.92;95360.09;4922780;29;20433;-83
2022/06/05 00:25:06;;;;;;;21.23;7.30;;;;;;;23.61;56.09;95374.66;4905880;29;20063;-83
2022/06/05 00:28:02;;;;;;;12.00;6.43;;;;;;;23.49;56.02;95382.13;4905330;29;20053;-83
2022/06/05 00:30:29;;;;;;;12.23;6.30;;;;;;;24.00;55.75;95435.16;4905260;29;20391;-83
2022/06/05 00:33:06;;;;;;;17.17;6.60;;;;;;;23.64;55.34;95409.19;4905541;29;20047;-83
2022/06/05 00:35:40;;;;;;;13.70;6.78;;;;;;;23.24;55.10;95328.13;4905943;29;20043;-83
2022/06/05 00:38:25;;;;;;;18.65;6.47;;;;;;;23.17;55.32;95392.13;4906266;29;20039;-84
2022/06/05 00:41:09;;;;;;;14.32;7.13;;;;;;;23.75;55.36;95441.91;4905625;29;20035;-84
2022/06/05 00:43:34;;;;;;;22.42;6.53;;;;;;;23.14;55.00;95369.25;4905202;29;20044;-84
2022/06/05 00:46:01;;;;;;;8.95;5.72;;;;;;;22.71;55.46;95305.94;4905412;29;20517;-83
2022/06/05 00:48:27;;;;;;;17.92;7.03;;;;;;;22.90;55.64;95350.44;4921012;29;20062;-83
2022/06/05 00:50:53;;;;;;;10.65;6.53;;;;;;;23.07;55.18;95350.91;4925886;29;20044;-83
2022/06/05 00:53:18;;;;;;;18.10;7.00;;;;;;;23.05;55.04;95336.94;4935193;29;20403;-83
2022/06/05 00:55:47;;;;;;;13.75;6.20;;;;;;;23.17;54.93;95354.25;4934382;29;20411;-83
2022/06/05 00:58:13;;;;;;;18.42;7.18;;;;;;;23.49;55.21;95401.06;4932956;29;20044;-83
2022/06/05 01:00:43;;;;;;;17.88;7.00;;;;;;;23.46;55.25;95384.34;4934081;29;20075;-83
2022/06/05 01:03:11;;;;;;;14.70;6.18;;;;;;;23.43;55.03;95384.25;4917256;29;20518;-83
2022/06/05 01:05:37;;;;;;;21.48;7.90;;;;;;;23.43;55.39;95393.16;4916627;29;20491;-83
2022/06/05 01:08:04;;;;;;;13.63;6.07;;;;;;;23.76;54.66;95438.06;4934818;29;20043;-84
2022/06/05 01:10:50;;;;;;;15.45;6.10;;;;;;;22.90;55.09;95332.31;4934382;29;20062;-83
2022/06/05 01:14:09;;;;;;;17.58;5.97;;;;;;;23.62;54.73;95441.22;4935462;29;20402;-83
2022/06/05 01:16:39;;;;;;;15.27;6.25;;;;;;;23.29;54.49;95383.91;4904344;29;20043;-83
2022/06/05 01:19:32;;;;;;;15.75;6.15;;;;;;;23.47;54.94;95442.75;4935681;29;20055;-83
2022/06/05 01:22:11;;;;;;;13.82;6.55;;;;;;;23.38;55.78;95444.06;4938668;29;20057;-83
2022/06/05 01:24:39;;;;;;;15.93;6.20;;;;;;;23.52;55.44;95443.66;4938885;29;20483;-83
2022/06/05 01:27:14;;;;;;;18.25;6.15;;;;;;;23.29;55.45;95413.66;4937556;29;20062;-83
2022/06/05 01:30:17;;;;;;;12.18;6.50;;;;;;;23.29;56.00;95438.03;4903416;29;20032;-83
2022/06/05 01:32:49;;;;;;;14.27;6.25;;;;;;;23.09;56.97;95431.72;4908614;29;20072;-83
2022/06/05 01:35:34;;;;;;;;;;;;;;;22.99;57.28;95433.00;4938943;29;20024;-84
2022/06/05 01:38:06;;;;;;;12.52;6.13;;;;;;;22.57;57.96;95397.47;4920751;29;19914;-83
2022/06/05 01:40:36;;;;;;;10.20;6.30;;;;;;;22.64;58.98;95437.41;4938688;29;20046;-83
2022/06/05 01:43:08;;;;;;;22.00;7.72;;;;;;;21.92;58.26;95291.41;4938199;29;20071;-84
2022/06/05 01:45:45;;;;;;;16.95;6.82;;;;;;;22.92;58.39;95430.09;4937369;29;20431;-83
2022/06/05 01:48:30;;;;;;;19.30;6.47;;;;;;;22.08;57.88;95286.09;4937796;29;20031;-83
2022/06/05 01:51:06;;;;;;;23.00;7.10;;;;;;;22.15;58.25;95318.69;4937964;29;20063;-83
2022/06/05 01:53:40;;;;;;;11.75;5.88;;;;;;;22.52;57.93;95351.75;4920632;29;20493;-83
2022/06/05 01:56:15;;;;;;;12.43;6.93;;;;;;;22.93;58.10;95417.38;4938397;29;20040;-83
2022/06/05 01:58:44;;;;;;;14.20;6.38;;;;;;;22.96;58.08;95414.00;4937361;29;20066;-83
2022/06/05 02:01:21;;;;;;;13.73;6.53;;;;;;;22.75;58.25;95394.47;4937362;29;20433;-83
2022/06/05 02:04:28;;;;;;;16.02;7.25;;;;;;;22.71;59.68;95424.88;4919992;29;20585;-83
2022/06/05 02:06:58;;;;;;;11.65;6.57;;;;;;;22.17;59.26;95337.25;4856438;29;20061;-83
2022/06/05 02:09:33;;;;;;;18.33;7.65;;;;;;;22.07;58.78;95303.41;4919443;29;20052;-83
2022/06/05 02:11:59;;;;;;;20.30;6.80;;;;;;;22.27;58.64;95342.97;4936109;29;20125;-83
2022/06/05 02:14:25;;;;;;;17.92;7.55;;;;;;;21.89;58.32;95283.97;4936505;29;20510;-83
2022/06/05 02:16:51;;;;;;;13.93;8.10;;;;;;;22.90;58.54;95420.75;4919888;29;20077;-83
2022/06/05 02:19:21;;;;;;;20.88;7.32;;;;;;;22.94;58.55;95418.97;4936596;29;20035;-83
2022/06/05 02:21:48;;;;;;;15.68;6.90;;;;;;;22.40;59.14;95376.13;4919888;29;20114;-83
2022/06/05 02:24:14;;;;;;;20.63;7.30;;;;;;;22.05;58.95;95321.88;4936835;29;20035;-83
2022/06/05 02:26:41;;;;;;;21.45;8.13;;;;;;;22.21;59.08;95332.72;4937387;29;20035;-83
2022/06/05 02:29:20;;;;;;;23.35;7.05;;;;;;;22.79;58.77;95412.38;4919560;29;20442;-83
2022/06/05 02:31:54;;;;;;;15.80;7.20;;;;;;;22.93;58.41;95422.78;4936971;29;20498;-83
2022/06/05 02:34:40;;;;;;;15.98;6.90;;;;;;;22.69;58.36;95385.81;4936727;29;20366;-84
2022/06/05 02:37:50;;;;;;;18.88;7.22;;;;;;;22.99;58.21;95418.69;4898440;29;20051;-83
2022/06/05 02:40:40;;;;;;;20.02;7.38;;;;;;;22.91;58.33;95422.34;4900769;29;20407;-83
2022/06/05 02:43:15;;;;;;;12.03;7.00;;;;;;;22.11;59.73;95354.84;4937238;29;20506;-83
2022/06/05 02:45:51;;;;;;;31.33;7.65;;;;;;;22.33;59.32;95367.81;4936621;29;20279;-83
2022/06/05 02:48:23;;;;;;;13.43;6.97;;;;;;;22.59;59.54;95414.09;4919732;29;20039;-83
2022/06/05 02:50:50;;;;;;;;;;;;;;;22.56;59.29;95398.59;4936257;29;20032;-83
2022/06/05 02:53:16;;;;;;;15.82;6.90;;;;;;;22.42;58.85;95360.38;4919092;29;19919;-83
2022/06/05 02:55:42;;;;;;;22.85;7.50;;;;;;;22.63;58.80;95409.59;4936842;29;20210;-83
2022/06/05 02:58:09;;;;;;;20.73;7.57;;;;;;;22.35;59.61;95399.91;4936535;29;20530;-83
2022/06/05 03:00:38;;;;;;;20.05;6.90;;;;;;;21.80;59.26;95298.75;4935652;29;20070;-83
2022/06/05 03:05:48;;;;;;;24.35;7.85;;;;;;;22.25;59.92;95401.97;4937051;29;20039;-83
2022/06/05 03:08:16;;;;;;;17.45;8.18;;;;;;;22.45;59.42;95405.59;4936672;29;20035;-83
2022/06/05 03:10:42;;;;;;;21.10;7.40;;;;;;;22.09;59.71;95363.28;4918839;29;20036;-83
2022/06/05 03:13:08;;;;;;;19.65;8.13;;;;;;;21.86;59.84;95333.28;4935769;29;20569;-83
2022/06/05 03:15:34;;;;;;;17.13;7.63;;;;;;;22.05;60.04;95370.47;4918970;29;20076;-83
2022/06/05 03:18:00;;;;;;;16.75;8.23;;;;;;;21.90;59.94;95344.94;4936517;29;20118;-83
2022/06/05 03:20:26;;;;;;;16.90;7.53;;;;;;;21.72;59.68;95313.16;4936522;29;20398;-83
2022/06/05 03:22:51;;;;;;;15.13;7.53;;;;;;;21.91;59.98;95354.63;4936086;29;20046;-83
2022/06/05 03:25:21;;;;;;;20.17;7.70;;;;;;;22.39;60.03;95430.50;4935179;29;20074;-83
2022/06/05 03:27:47;;;;;;;16.98;8.48;;;;;;;22.37;60.14;95432.75;4918441;29;20039;-83
2022/06/05 03:30:14;;;;;;;21.98;8.45;;;;;;;21.87;59.96;95336.75;4935330;29;20075;-82
2022/06/05 03:32:40;;;;;;;18.40;8.15;;;;;;;22.23;60.00;95396.09;4935303;29;20036;-83
2022/06/05 03:35:07;;;;;;;16.70;7.70;;;;;;;22.55;59.12;95434.84;4935107;29;20118;-83
2022/06/05 03:37:32;;;;;;;18.17;8.05;;;;;;;22.07;58.31;95345.84;4917936;29;20514;-83
2022/06/05 03:39:58;;;;;;;22.13;7.97;;;;;;;22.30;59.05;95414.44;4918537;29;20036;-83
2022/06/05 03:42:24;;;;;;;18.17;8.05;;;;;;;21.35;59.80;95361.00;4935514;29;20036;-83
2022/06/05 03:44:50;;;;;;;18.52;8.07;;;;;;;21.51;58.66;95359.19;4918036;29;20031;-83
2022/06/05 03:47:16;;;;;;;20.13;8.68;;;;;;;22.22;58.11;95445.06;4935576;29;20403;-83
2022/06/05 03:49:41;;;;;;;28.50;8.40;;;;;;;21.54;58.63;95312.63;4917665;29;20039;-83
2022/06/05 03:52:09;;;;;;;31.10;8.75;;;;;;;22.49;58.58;95441.63;4935907;29;20126;-83
2022/06/05 03:54:35;;;;;;;16.63;8.55;;;;;;;22.29;57.88;95400.13;4917586;29;20114;-83
2022/06/05 03:57:02;;;;;;;21.15;8.90;;;;;;;22.06;57.36;95372.06;4935282;29;20040;-83
2022/06/05 03:59:27;;;;;;;20.92;8.82;;;;;;;21.94;57.34;95394.44;4917071;29;20153;-83
2022/06/05 04:01:56;;;;;;;18.70;8.35;;;;;;;22.31;57.82;95451.91;4935420;29;20163;-83
2022/06/05 04:04:23;;;;;;;19.67;9.30;;;;;;;22.09;57.82;95414.59;4918634;29;20043;-83
2022/06/05 04:06:48;;;;;;;22.02;8.40;;;;;;;22.42;57.31;95444.13;4918089;29;20031;-83
2022/06/05 04:09:14;;;;;;;20.77;9.20;;;;;;;21.52;57.44;95312.97;4934752;29;20035;-83
2022/06/05 04:11:39;;;;;;;24.20;8.02;;;;;;;21.33;57.27;95277.69;4934995;29;20570;-83
2022/06/05 04:14:07;;;;;;;16.52;7.68;;;;;;;22.18;57.30;95426.06;4935692;29;20028;-84
2022/06/05 04:16:34;;;;;;;19.25;8.07;;;;;;;22.31;56.91;95432.22;4934936;29;20033;-83
2022/06/05 04:19:01;;;;;;;14.98;7.95;;;;;;;22.41;57.57;95455.28;4934848;29;20536;-83
2022/06/05 04:21:29;;;;;;;28.58;9.23;;;;;;;22.52;57.37;95442.84;4935031;29;20032;-83
2022/06/05 04:23:55;;;;;;;15.65;8.38;;;;;;;22.14;57.13;95370.34;4917959;29;20533;-83
2022/06/05 04:26:24;;;;;;;20.02;8.93;;;;;;;22.37;57.74;95443.56;4918503;29;20051;-83
2022/06/05 04:28:53;;;;;;;21.13;8.15;;;;;;;22.05;57.83;95388.63;4935222;29;20071;-83
2022/06/05 04:31:27;;;;;;;20.33;8.15;;;;;;;22.52;57.58;95435.53;4934874;29;20069;-83
2022/06/05 04:33:56;;;;;;;13.52;7.68;;;;;;;22.03;57.49;95361.97;4935018;29;20042;-83
2022/06/05 04:36:22;;;;;;;22.92;8.15;;;;;;;22.69;57.26;95437.16;4934553;29;20102;-83
2022/06/05 04:38:48;;;;;;;21.70;9.15;;;;;;;22.76;56.85;95433.91;4934636;29;20115;-83
2022/06/05 04:41:14;;;;;;;25.58;8.80;;;;;;;22.82;56.59;95432.50;4917377;29;20078;-83
2022/06/05 04:43:40;;;;;;;21.52;8.70;;;;;;;22.80;56.50;95429.41;4934751;29;20039;-83
2022/06/05 04:46:07;;;;;;;17.15;9.25;;;;;;;22.52;56.34;95369.88;4934882;29;20558;-83
2022/06/05 04:48:33;;;;;;;17.77;9.18;;;;;;;22.79;56.18;95398.88;4917757;29;20056;-83
2022/06/05 04:50:59;;;;;;;17.70;8.13;;;;;;;22.95;56.50;95424.03;4917762;29;20039;-83
2022/06/05 04:53:24;;;;;;;19.42;8.93;;;;;;;22.86;56.07;95415.28;4917531;29;20126;-83
2022/06/05 04:55:50;;;;;;;14.82;7.78;;;;;;;22.72;56.93;95417.56;4918363;29;20055;-83
2022/06/05 04:58:15;;;;;;;16.73;8.65;;;;;;;22.64;56.79;95392.25;4935316;29;20031;-83
2022/06/05 05:00:41;;;;;;;20.67;8.63;;;;;;;22.20;56.67;95336.59;4934443;29;20703;-83
2022/06/05 05:03:07;;;;;;;20.15;9.10;;;;;;;22.65;57.40;95433.59;4917263;29;20039;-83
2022/06/05 05:05:36;;;;;;;23.23;8.90;;;;;;;22.60;57.13;95447.34;4934798;29;20122;-83
2022/06/05 05:08:01;;;;;;;21.40;9.15;;;;;;;22.59;58.00;95446.53;4935223;29;20039;-83
2022/06/05 05:10:28;;;;;;;19.50;9.45;;;;;;;22.74;57.57;95439.66;4934312;29;20111;-83
2022/06/05 05:12:54;;;;;;;21.30;9.80;;;;;;;22.33;57.25;95357.81;4916561;29;20043;-83
2022/06/05 05:15:19;;;;;;;20.67;9.45;;;;;;;22.61;57.56;95419.16;4934006;29;20059;-83
2022/06/05 05:17:45;;;;;;;17.30;9.18;;;;;;;22.12;57.57;95335.59;4916903;29;20332;-84
2022/06/05 05:20:11;;;;;;;22.75;10.00;;;;;;;22.92;57.24;95443.63;4917653;29;20462;-83
2022/06/05 05:22:39;;;;;;;21.35;10.18;;;;;;;22.10;57.65;95335.16;4917357;29;20057;-83
2022/06/05 05:25:08;;;;;;;14.27;9.10;;;;;;;22.37;57.30;95357.09;4934578;29;20142;-83
2022/06/05 05:27:35;;;;;;;30.25;9.88;;;;;;;22.66;57.34;95395.38;4916675;29;20031;-83
2022/06/05 05:30:02;;;;;;;22.88;10.15;;;;;;;22.55;57.60;95383.50;4934656;29;20040;-83
2022/06/05 05:32:27;;;;;;;23.27;11.15;;;;;;;22.06;57.77;95339.66;4934776;29;20475;-83
2022/06/05 05:34:53;;;;;;;17.65;9.95;;;;;;;22.29;57.44;95351.50;4916857;29;20042;-83
2022/06/05 05:37:18;;;;;;;27.52;10.15;;;;;;;22.62;57.23;95383.69;4916967;29;20062;-83
2022/06/05 05:42:30;;;;;;;22.38;9.18;;;;;;;22.79;57.53;95403.47;4934998;29;20055;-83
2022/06/05 05:44:57;;;;;;;22.50;10.68;;;;;;;22.52;57.66;95364.47;4917492;29;20043;-83
2022/06/05 05:47:32;;;;;;;22.75;10.30;;;;;;;22.69;57.59;95389.28;4933943;29;20091;-83
2022/06/05 05:50:01;;;;;;;17.77;10.40;;;;;;;22.46;57.57;95345.03;4916486;29;20051;-83
2022/06/05 05:52:28;;;;;;;17.88;9.70;;;;;;;22.98;57.70;95409.78;4917927;29;20446;-83
2022/06/05 05:54:53;;;;;;;20.88;9.90;;;;;;;22.89;57.09;95381.31;4935828;29;20039;-83
2022/06/05 05:57:20;;;;;;;20.02;10.27;;;;;;;23.13;57.62;95419.06;4935048;29;20040;-83
2022/06/05 05:59:46;;;;;;;24.02;10.18;;;;;;;23.45;57.40;95445.03;4918023;29;20058;-83
2022/06/05 06:02:16;;;;;;;17.50;9.93;;;;;;;23.18;57.06;95380.16;4937951;29;20512;-84
2022/06/05 06:04:42;;;;;;;17.08;9.98;;;;;;;23.20;56.58;95375.94;4937700;29;20103;-83
2022/06/05 06:07:09;;;;;;;21.58;8.93;;;;;;;23.68;56.84;95452.56;4920469;29;20035;-83
2022/06/05 06:09:35;;;;;;;25.52;9.68;;;;;;;23.11;57.58;95390.81;4938151;29;20046;-83
2022/06/05 06:12:01;;;;;;;25.02;8.77;;;;;;;23.68;57.23;95449.84;4920165;29;20035;-83
2022/06/05 06:14:26;;;;;;;25.60;9.70;;;;;;;23.20;56.71;95386.00;4919879;29;20623;-83
2022/06/05 06:16:52;;;;;;;23.50;9.63;;;;;;;23.19;56.96;95382.50;4919925;29;20056;-83
2022/06/05 06:19:18;;;;;;;20.33;10.10;;;;;;;22.87;57.01;95333.03;4937061;29;20039;-83
2022/06/05 06:21:44;;;;;;;22.55;10.00;;;;;;;23.51;57.39;95423.91;4919762;29;20065;-83
2022/06/05 06:24:11;;;;;;;22.42;10.07;;;;;;;23.32;56.79;95402.16;4936904;29;20118;-83
2022/06/05 06:26:36;;;;;;;20.20;9.43;;;;;;;22.97;57.16;95348.72;4936374;29;20046;-83
2022/06/05 06:29:02;;;;;;;21.13;9.50;;;;;;;22.95;57.23;95329.38;4937332;29;20036;-84
2022/06/05 06:31:27;;;;;;;22.95;10.23;;;;;;;23.68;57.66;95458.75;4919391;29;20062;-83
2022/06/05 06:33:52;;;;;;;19.85;10.18;;;;;;;22.92;57.54;95324.66;4935536;29;20042;-83
2022/06/05 06:36:19;;;;;;;24.50;10.25;;;;;;;23.84;57.86;95443.28;4919496;29;20145;-83
2022/06/05 06:38:45;;;;;;;27.35;10.68;;;;;;;23.29;57.61;95356.84;4919537;29;20692;-83
2022/06/05 06:41:13;;;;;;;29.50;12.48;;;;;;;23.24;57.93;95328.13;4935804;29;20042;-83
2022/06/05 06:43:41;;;;;;;16.45;10.18;;;;;;;23.66;58.05;95384.44;4919486;29;20562;-83
2022/06/05 06:46:07;;;;;;;23.27;9.55;;;;;;;23.69;57.81;95397.28;4919422;29;20040;-83
2022/06/05 06:48:33;;;;;;;19.35;10.10;;;;;;;23.37;58.20;95372.13;4936609;29;20032;-83
2022/06/05 06:50:59;;;;;;;17.48;10.73;;;;;;;23.51;58.25;95379.81;4919811;29;20130;-83
2022/06/05 06:53:26;;;;;;;14.50;10.07;;;;;;;23.95;58.58;95440.84;4936058;29;20039;-83
2022/06/05 06:55:51;;;;;;;17.85;10.15;;;;;;;23.88;58.69;95423.66;4919090;29;20047;-83
2022/06/05 06:58:17;;;;;;;18.65;10.23;;;;;;;24.10;59.44;95445.44;4918621;29;20044;-83
2022/06/05 07:00:43;;;;;;;23.02;9.80;;;;;;;23.57;59.04;95390.06;4919114;29;20055;-83
2022/06/05 07:03:09;;;;;;;20.50;9.82;;;;;;;23.74;58.23;95392.38;4919590;29;20043;-83
2022/06/05 07:05:35;;;;;;;18.65;10.02;;;;;;;24.04;58.58;95444.13;4936010;29;20040;-83
2022/06/05 07:08:01;;;;;;;17.42;8.20;;;;;;;24.08;58.03;95426.03;4935204;29;20028;-83
2022/06/05 07:10:27;;;;;;;21.13;9.48;;;;;;;23.26;58.18;95292.63;4918977;29;20024;-83
2022/06/05 07:12:52;;;;;;;18.40;9.35;;;;;;;23.81;57.97;95359.25;4937051;29;20035;-84
2022/06/05 07:15:19;;;;;;;18.60;9.30;;;;;;;24.35;57.60;95440.59;4936701;29;20040;-83
2022/06/05 07:17:45;;;;;;;14.07;9.77;;;;;;;23.88;57.76;95370.25;4936229;29;20109;-84
2022/06/05 07:20:11;;;;;;;19.00;8.77;;;;;;;23.65;56.83;95347.69;4918817;29;20027;-83
2022/06/05 07:22:37;;;;;;;16.88;10.07;;;;;;;23.99;57.86;95376.69;4936315;29;20118;-84
2022/06/05 07:25:03;;;;;;;21.90;9.73;;;;;;;24.11;56.84;95365.72;4936939;29;20118;-83
2022/06/05 07:27:29;;;;;;;23.58;9.18;;;;;;;24.43;56.52;95420.63;4936604;29;20051;-83
2022/06/05 07:29:55;;;;;;;16.45;9.32;;;;;;;24.54;57.24;95432.50;4936529;29;20495;-83
2022/06/05 07:32:21;;;;;;;20.45;9.65;;;;;;;23.72;56.73;95299.91;4919625;29;20074;-83
2022/06/05 07:34:47;;;;;;;17.75;9.38;;;;;;;23.89;57.34;95316.84;4937273;29;20110;-83
2022/06/05 07:37:16;;;;;;;16.40;8.82;;;;;;;23.88;56.75;95328.84;4936746;29;20076;-83
2022/06/05 07:39:42;;;;;;;17.35;8.82;;;;;;;24.18;56.26;95355.03;4917937;29;20407;-83
2022/06/05 07:42:08;;;;;;;13.85;8.57;;;;;;;24.60;56.20;95422.13;4918630;29;20064;-84
2022/06/05 07:44:36;;;;;;;16.50;8.82;;;;;;;24.78;56.56;95417.88;4936248;29;20035;-84
2022/06/05 07:47:08;;;;;;;23.45;9.57;;;;;;;24.27;56.43;95314.19;4936265;29;20032;-83
2022/06/05 07:49:38;;;;;;;21.88;9.23;;;;;;;24.83;55.71;95404.00;4919010;29;20027;-83
2022/06/05 07:54:48;;;;;;;20.42;8.40;;;;;;;24.84;54.45;95393.94;4936100;28;20411;-83
2022/06/05 07:57:18;;;;;;;23.90;8.63;;;;;;;24.68;53.87;95350.63;4935404;29;20040;-83
2022/06/05 07:59:45;;;;;;;16.52;6.90;;;;;;;24.59;53.17;95323.75;4935632;29;20427;-83
2022/06/05 08:02:15;;;;;;;18.52;8.10;;;;;;;24.33;53.98;95285.69;4918767;29;20122;-84
2022/06/05 08:04:42;;;;;;;16.27;7.60;;;;;;;24.45;51.95;95301.00;4934028;29;20100;-83
2022/06/05 08:07:10;;;;;;;17.25;7.40;;;;;;;24.55;51.73;95317.47;4935495;29;20039;-83
2022/06/05 08:09:38;;;;;;;21.27;7.88;;;;;;;24.96;51.45;95358.53;4935488;29;20054;-83
2022/06/05 08:12:05;;;;;;;13.57;6.53;;;;;;;25.22;50.95;95402.03;4918415;29;20514;-83
2022/06/05 08:14:34;;;;;;;11.60;6.05;;;;;;;25.02;50.82;95353.59;4935896;29;20455;-83
2022/06/05 08:17:00;;;;;;;12.20;6.50;;;;;;;24.96;50.51;95350.38;4918017;29;20032;-83
2022/06/05 08:19:25;;;;;;;12.57;6.93;;;;;;;25.23;51.52;95395.47;4934982;29;20042;-83
2022/06/05 08:21:53;;;;;;;9.63;6.68;;;;;;;24.88;50.79;95327.75;4935190;29;20080;-83
2022/06/05 08:24:19;;;;;;;17.98;6.85;;;;;;;25.00;51.79;95359.38;4935010;29;20441;-82
2022/06/05 08:26:45;;;;;;;16.50;7.15;;;;;;;25.48;51.39;95393.16;4935472;29;20447;-83
2022/06/05 08:29:10;;;;;;;18.90;7.05;;;;;;;25.15;50.92;95334.06;4934894;29;20129;-82
2022/06/05 08:31:37;;;;;;;17.67;6.47;;;;;;;25.28;51.32;95357.16;4935081;29;20447;-83
2022/06/05 08:34:03;;;;;;;14.05;6.80;;;;;;;25.34;51.67;95354.91;4934802;29;20507;-83
2022/06/05 08:36:29;;;;;;;12.20;6.07;;;;;;;25.56;50.15;95375.81;4918146;29;20027;-83
2022/06/05 08:41:57;;;;;;;18.15;6.55;;;;;;;25.89;50.02;95386.06;4934827;29;20083;-83
2022/06/05 08:44:43;;;;;;;13.85;5.60;;;;;;;25.89;49.60;95385.28;4934841;29;20502;-83
2022/06/05 08:47:26;;;;;;;13.52;6.05;;;;;;;26.07;49.94;95387.13;4917394;29;20036;-84
2022/06/05 08:50:04;;;;;;;13.18;6.13;;;;;;;26.02;48.84;95392.06;4934894;29;20042;-83
2022/06/05 08:52:58;;;;;;;12.48;5.60;;;;;;;26.09;47.33;95390.22;4935354;29;20103;-83
2022/06/05 08:55:30;;;;;;;17.85;5.05;;;;;;;26.15;48.42;95396.16;4917504;29;20457;-83
2022/06/05 08:58:26;;;;;;;18.25;6.25;;;;;;;25.76;48.42;95352.13;4917428;29;20050;-83
2022/06/05 09:01:03;;;;;;;10.13;5.47;;;;;;;26.04;47.90;95398.72;4914778;29;20055;-83
2022/06/05 09:04:07;;;;;;;9.45;5.07;;;;;;;26.12;47.00;95383.28;4934729;29;20098;-83
2022/06/05 09:06:45;;;;;;;15.07;4.45;;;;;;;25.67;45.64;95294.56;4919539;29;20063;-84
2022/06/05 09:09:35;;;;;;;17.58;5.40;;;;;;;26.15;45.96;95358.09;4934382;29;20122;-83
2022/06/05 09:12:09;;;;;;;10.85;4.68;;;;;;;26.28;45.41;95392.06;4907808;29;20130;-83
2022/06/05 09:15:04;;;;;;;12.93;4.57;;;;;;;26.27;43.84;95376.91;4918019;29;20040;-83
2022/06/05 09:17:30;;;;;;;14.02;4.68;;;;;;;25.83;43.80;95305.25;4934837;29;20096;-83
2022/06/05 09:19:57;;;;;;;12.32;4.35;;;;;;;26.38;43.15;95366.19;4935006;29;20067;-83
2022/06/05 09:22:41;;;;;;;14.35;4.60;;;;;;;26.13;42.69;95322.34;4933920;29;20043;-83
2022/06/05 09:25:43;;;;;;;12.60;4.75;;;;;;;26.51;43.81;95367.50;4933726;29;20036;-83
2022/06/05 09:28:30;;;;;;;12.27;5.20;;;;;;;26.48;44.26;95369.03;4917118;29;20043;-83
2022/06/05 09:30:59;;;;;;;11.00;5.28;;;;;;;26.46;43.90;95360.47;4934642;29;20035;-83
2022/06/05 09:33:30;;;;;;;8.32;4.55;;;;;;;26.49;44.21;95358.94;4934916;29;20518;-84
2022/06/05 09:36:18;;;;;;;13.57;4.50;;;;;;;26.69;44.24;95354.91;4937965;29;20067;-83
2022/06/05 09:38:50;;;;;;;15.45;5.90;;;;;;;26.14;44.25;95275.78;4937547;29;20046;-83
2022/06/05 09:41:42;;;;;;;13.70;4.55;;;;;;;26.87;43.00;95355.84;4937953;29;20066;-83
2022/06/05 09:44:23;;;;;;;11.60;4.78;;;;;;;27.51;42.44;95347.53;4938083;29;20091;-83
2022/06/05 09:47:00;;;;;;;11.27;4.73;;;;;;;28.32;40.56;95344.56;4938520;29;20047;-84
2022/06/05 09:49:34;;;;;;;10.93;4.22;;;;;;;29.24;39.37;95342.09;4937899;29;20060;-84
2022/06/05 09:52:28;;;;;;;12.18;3.83;;;;;;;29.86;35.89;95301.50;4920774;29;20032;-83
2022/06/05 09:55:06;;;;;;;15.50;3.75;;;;;;;31.12;34.65;95347.19;4937612;29;20454;-84
2022/06/05 10:00:37;;;;;;;6.50;4.28;;;;;;;31.76;33.17;95342.00;4938020;29;20121;-83
2022/06/05 10:03:10;;;;;;;8.02;3.58;;;;;;;32.18;31.65;95334.56;4937570;29;20054;-84
2022/06/05 10:05:40;;;;;;;9.88;3.60;;;;;;;32.76;31.38;95343.69;4920265;29;20036;-83
2022/06/05 10:08:16;;;;;;;6.05;3.72;;;;;;;33.40;30.05;95337.31;4920547;29;20479;-83
2022/06/05 10:10:42;;;;;;;8.32;3.58;;;;;;;33.24;29.86;95289.25;4937731;29;20120;-83
2022/06/05 10:13:45;;;;;;;8.77;3.30;;;;;;;32.98;30.59;95347.69;4919930;29;20130;-83
2022/06/05 10:16:31;;;;;;;8.90;3.55;;;;;;;32.52;30.16;95272.19;4920005;29;20578;-83
2022/06/05 10:19:02;;;;;;;12.07;3.67;;;;;;;33.20;29.74;95271.22;4937759;29;20039;-83
2022/06/05 10:21:38;;;;;;;5.38;3.63;;;;;;;34.16;28.63;95321.88;4937427;28;20028;-84
2022/06/05 10:24:04;;;;;;;9.75;3.13;;;;;;;34.33;28.93;95326.28;4937363;29;20039;-84
2022/06/05 10:26:39;;;;;;;9.23;3.60;;;;;;;33.80;29.11;95306.00;4937319;29;20020;-84
2022/06/05 10:29:26;;;;;;;7.07;3.25;;;;;;;32.26;30.78;95266.66;4936886;29;20031;-83
2022/06/05 10:32:10;;;;;;;11.02;3.35;;;;;;;31.59;31.50;95243.41;4919785;29;20106;-83
2022/06/05 10:34:54;;;;;;;9.48;3.78;;;;;;;31.92;31.81;95321.47;4919949;29;20036;-83
2022/06/05 10:37:44;;;;;;;6.30;3.55;;;;;;;32.17;32.23;95317.31;4920070;29;20510;-83
2022/06/05 10:40:18;;;;;;;13.77;3.67;;;;;;;32.18;31.40;95272.22;4921392;29;20087;-83
2022/06/05 10:43:01;;;;;;;8.05;3.63;;;;;;;32.73;31.56;95315.06;4937766;28;20035;-83
2022/06/05 10:45:34;;;;;;;9.50;3.75;;;;;;;32.74;30.98;95304.88;4919781;29;20044;-84
2022/06/05 10:48:20;;;;;;;5.75;3.45;;;;;;;32.19;30.84;95226.38;4919867;29;20040;-84
2022/06/05 10:50:55;;;;;;;9.02;3.53;;;;;;;32.83;30.64;95280.41;4936704;29;20562;-84
2022/06/05 10:53:51;;;;;;;13.40;5.07;;;;;;;32.87;31.17;95294.88;4919715;29;20036;-83
2022/06/05 10:56:29;;;;;;;6.82;3.83;;;;;;;32.94;31.18;95298.31;4936815;29;20047;-83
2022/06/05 10:59:13;;;;;;;9.30;3.90;;;;;;;33.29;30.18;95298.97;4936645;29;20028;-84
2022/06/05 11:01:51;;;;;;;4.78;3.33;;;;;;;33.03;30.50;95291.53;4936019;29;20392;-83
2022/06/05 11:04:22;;;;;;;7.35;2.85;;;;;;;32.56;29.47;95296.84;4936202;29;20094;-83
2022/06/05 11:07:09;;;;;;;10.27;2.92;;;;;;;32.81;29.21;95286.31;4919640;29;20058;-84
2022/06/05 11:09:51;;;;;;;4.57;2.53;;;;;;;33.10;28.96;95267.47;4936132;29;20035;-83
2022/06/05 11:15:18;;;;;;;6.05;2.85;;;;;;;33.49;27.81;95299.06;4936305;28;20606;-83
2022/06/05 11:18:14;;;;;;;7.93;2.42;;;;;;;33.89;27.37;95277.94;4936153;29;20118;-84
2022/06/05 11:20:42;;;;;;;8.57;2.20;;;;;;;33.34;26.90;95180.31;4935529;29;20055;-83
2022/06/05 11:23:18;;;;;;;9.80;3.20;;;;;;;34.22;26.59;95240.34;4936323;29;20051;-83
2022/06/05 11:25:46;;;;;;;8.55;2.83;;;;;;;34.20;26.65;95279.31;4920000;29;20043;-83
2022/06/05 11:28:40;;;;;;;7.32;2.63;;;;;;;34.40;25.57;95277.38;4919073;29;20035;-84
2022/06/05 11:31:05;;;;;;;7.93;2.47;;;;;;;34.78;25.62;95269.50;4918807;29;20441;-84
2022/06/05 11:33:38;;;;;;;8.45;3.20;;;;;;;34.90;25.44;95229.47;4936559;29;20043;-83
2022/06/05 11:36:20;;;;;;;10.50;2.58;;;;;;;34.51;25.96;95270.84;4936064;29;20044;-83
2022/06/05 11:39:05;;;;;;;7.93;2.67;;;;;;;34.69;25.38;95274.78;4936456;29;20044;-83
2022/06/05 11:42:09;;;;;;;7.18;2.40;;;;;;;35.06;24.92;95275.53;4901509;29;20032;-84
2022/06/05 11:44:43;;;;;;;7.90;3.00;;;;;;;35.60;25.20;95262.03;4932131;29;20490;-84
2022/06/05 11:47:25;;;;;;;5.22;2.20;;;;;;;35.24;24.76;95193.25;4935778;29;20035;-84
2022/06/05 11:50:22;;;;;;;8.25;2.28;;;;;;;35.19;21.33;95172.44;4918742;29;20146;-83
2022/06/05 11:53:09;;;;;;;3.80;1.40;;;;;;;35.33;20.95;95244.97;4936000;29;20049;-83
2022/06/05 11:55:59;;;;;;;7.57;1.75;;;;;;;35.41;21.21;95246.34;4918130;29;20035;-83
2022/06/05 11:58:38;;;;;;;4.85;1.45;;;;;;;34.74;22.21;95251.47;4918080;29;20086;-84
2022/06/05 12:01:23;;;;;;;8.82;2.47;;;;;;;34.37;24.58;95266.41;4900209;29;20044;-83
2022/06/05 12:04:10;;;;;;;4.45;2.10;;;;;;;34.21;24.74;95261.59;4915563;29;20143;-84
2022/06/05 12:06:42;;;;;;;5.15;1.60;;;;;;;33.71;23.15;95267.25;4899766;29;20088;-83
2022/06/05 12:09:29;;;;;;;7.28;1.70;;;;;;;32.18;24.74;95195.41;4899370;29;20047;-83